Time;durP1;ratioP1;P1;durP2;ratioP2;P2;SDS_P1;SDS_P2;PMS_P1;PMS_P2;Temp;Humidity;BMP_temperature;BMP_pressure;BME280_temperature;BME280_humidity;BME280_pressure;Samples;Min_cycle;Max_cycle;Signal;HPM_P1;HPM_P2
2021/01/27 00:00:59;;;;;;;3.25;1.63;;;3.60;99.90;;;;;;5011176;28;20056;-67
2021/01/27 00:03:25;;;;;;;4.35;1.85;;;3.60;99.90;;;;;;5009153;28;20498;-66
2021/01/27 00:05:52;;;;;;;4.15;1.63;;;3.60;99.90;;;;;;5008869;28;20065;-66
2021/01/27 00:08:18;;;;;;;4.75;1.67;;;3.60;99.90;;;;;;5005207;28;20045;-66
2021/01/27 00:10:44;;;;;;;4.53;1.52;;;3.60;99.90;;;;;;5007761;28;20406;-67
2021/01/27 00:13:15;;;;;;;5.20;1.58;;;3.50;99.90;;;;;;5007501;28;20037;-66
2021/01/27 00:15:42;;;;;;;5.70;2.45;;;3.50;99.90;;;;;;5008740;28;20034;-66
2021/01/27 00:18:10;;;;;;;4.65;1.70;;;3.50;99.90;;;;;;5008359;28;20495;-66
2021/01/27 00:20:35;;;;;;;4.50;1.70;;;3.50;99.90;;;;;;5012726;28;20045;-66
2021/01/27 00:23:01;;;;;;;4.00;1.55;;;3.50;99.90;;;;;;5006889;28;20049;-66
2021/01/27 00:25:32;;;;;;;5.68;1.50;;;3.50;99.90;;;;;;5009003;28;20042;-66
2021/01/27 00:27:59;;;;;;;7.65;1.83;;;3.50;99.90;;;;;;5008270;28;20686;-66
2021/01/27 00:30:37;;;;;;;2.58;1.20;;;3.50;99.90;;;;;;5007505;28;20116;-66
2021/01/27 00:33:04;;;;;;;5.20;2.00;;;3.40;99.90;;;;;;5007064;28;20041;-66
2021/01/27 00:35:33;;;;;;;4.53;1.95;;;3.40;99.90;;;;;;5008780;28;20080;-66
2021/01/27 00:38:05;;;;;;;4.05;1.67;;;3.40;99.90;;;;;;5011886;28;20051;-66
2021/01/27 00:40:30;;;;;;;5.45;2.00;;;3.40;99.90;;;;;;5010999;28;20045;-66
2021/01/27 00:42:56;;;;;;;3.28;1.70;;;3.40;99.90;;;;;;5012412;28;20038;-66
2021/01/27 00:45:22;;;;;;;5.43;2.58;;;3.30;99.90;;;;;;5008724;28;20087;-66
2021/01/27 00:47:47;;;;;;;3.75;2.00;;;3.30;99.90;;;;;;5010524;28;20087;-67
2021/01/27 00:50:15;;;;;;;7.07;2.60;;;3.30;99.90;;;;;;5009244;28;20036;-66
2021/01/27 00:52:41;;;;;;;3.80;1.80;;;3.20;99.90;;;;;;5008997;28;20120;-67
2021/01/27 00:55:10;;;;;;;4.65;2.22;;;3.30;99.90;;;;;;5012262;28;20193;-66
2021/01/27 00:57:36;;;;;;;7.80;2.63;;;3.30;99.90;;;;;;5007723;28;20046;-66
2021/01/27 01:00:06;;;;;;;6.00;2.50;;;3.30;99.90;;;;;;5010200;28;20049;-67
2021/01/27 01:02:34;;;;;;;5.18;2.25;;;3.20;99.90;;;;;;5010408;28;20026;-66
2021/01/27 01:05:00;;;;;;;5.53;2.40;;;3.30;99.90;;;;;;5008589;28;20049;-66
2021/01/27 01:07:25;;;;;;;4.32;1.95;;;3.20;99.90;;;;;;5013738;28;20030;-66
2021/01/27 01:09:51;;;;;;;5.82;3.00;;;3.20;99.90;;;;;;5013205;28;20049;-65
2021/01/27 01:12:16;;;;;;;3.00;2.00;;;3.20;99.90;;;;;;5016243;28;20042;-66
2021/01/27 01:14:42;;;;;;;7.35;3.15;;;3.20;99.90;;;;;;5012721;28;20070;-66
2021/01/27 01:17:07;;;;;;;4.70;2.25;;;3.10;99.90;;;;;;5009177;28;20061;-64
2021/01/27 01:19:33;;;;;;;7.55;2.25;;;3.20;99.90;;;;;;5008676;28;20113;-64
2021/01/27 01:21:58;;;;;;;5.32;2.58;;;3.00;99.90;;;;;;5008271;28;20483;-64
2021/01/27 01:24:24;;;;;;;6.78;2.80;;;3.00;99.90;;;;;;5006771;28;20032;-64
2021/01/27 01:26:49;;;;;;;4.10;2.47;;;3.00;99.90;;;;;;5009042;28;20040;-64
2021/01/27 01:29:17;;;;;;;9.98;3.40;;;3.00;99.90;;;;;;5008014;28;20037;-64
2021/01/27 01:31:42;;;;;;;6.25;2.83;;;3.00;99.90;;;;;;5004477;28;20117;-64
2021/01/27 01:34:08;;;;;;;4.25;2.47;;;3.00;99.90;;;;;;5007870;28;20474;-64
2021/01/27 01:36:33;;;;;;;5.70;2.83;;;3.00;99.90;;;;;;5008687;28;20034;-64
2021/01/27 01:38:59;;;;;;;4.70;2.75;;;2.90;99.90;;;;;;5008113;28;20160;-64
2021/01/27 01:41:24;;;;;;;4.78;2.53;;;3.00;99.90;;;;;;5009234;28;20114;-64
2021/01/27 01:43:50;;;;;;;14.73;3.13;;;2.90;99.90;;;;;;5012037;28;20038;-64
2021/01/27 01:46:19;;;;;;;4.55;2.63;;;2.90;99.90;;;;;;5010959;28;20088;-65
2021/01/27 01:48:54;;;;;;;5.68;2.90;;;2.90;99.90;;;;;;5010061;28;20050;-64
2021/01/27 01:51:45;;;;;;;6.43;3.13;;;3.00;99.90;;;;;;5011443;28;20033;-64
2021/01/27 01:54:33;;;;;;;7.63;2.97;;;3.00;99.90;;;;;;5014735;28;20030;-64
2021/01/27 01:57:03;;;;;;;8.75;3.47;;;2.90;99.90;;;;;;5011486;28;20100;-64
2021/01/27 01:59:32;;;;;;;7.28;2.80;;;2.90;99.90;;;;;;5010845;28;20024;-64
2021/01/27 02:02:01;;;;;;;8.93;3.63;;;3.00;99.90;;;;;;5011480;28;20088;-64
2021/01/27 02:04:34;;;;;;;4.60;2.85;;;3.00;99.90;;;;;;5010814;28;20022;-64
2021/01/27 02:07:00;;;;;;;5.63;2.58;;;3.00;99.90;;;;;;5011538;28;20065;-64
2021/01/27 02:09:25;;;;;;;4.93;2.95;;;3.00;99.90;;;;;;5010688;28;20037;-64
2021/01/27 02:12:16;;;;;;;7.07;2.83;;;3.00;99.90;;;;;;5012265;28;20065;-64
2021/01/27 02:14:47;;;;;;;;;;;3.10;99.90;;;;;;5007904;28;20037;-64
2021/01/27 02:17:20;;;;;;;5.28;2.70;;;3.10;99.90;;;;;;5012604;28;19917;-64
2021/01/27 02:19:49;;;;;;;6.70;3.03;;;3.10;99.90;;;;;;5020956;28;20482;-65
2021/01/27 02:22:42;;;;;;;5.95;2.72;;;3.00;99.90;;;;;;5019116;28;20403;-64
2021/01/27 02:25:38;;;;;;;5.07;2.67;;;3.00;99.90;;;;;;5010770;28;20117;-64
2021/01/27 02:28:08;;;;;;;6.00;2.45;;;3.10;99.90;;;;;;5010085;28;20149;-64
2021/01/27 02:30:56;;;;;;;5.47;2.55;;;3.10;99.90;;;;;;5011103;28;20030;-64
2021/01/27 02:33:44;;;;;;;6.28;2.65;;;3.10;99.90;;;;;;5010569;28;20044;-64
2021/01/27 02:36:15;;;;;;;11.32;3.22;;;3.10;99.90;;;;;;5006629;28;20506;-64
2021/01/27 02:38:53;;;;;;;6.97;2.40;;;3.10;99.90;;;;;;5007108;28;20038;-64
2021/01/27 02:41:42;;;;;;;4.85;2.20;;;3.10;99.90;;;;;;5006704;28;20674;-64
2021/01/27 02:44:16;;;;;;;7.63;2.50;;;3.10;99.90;;;;;;5006086;28;20052;-64
2021/01/27 02:46:48;;;;;;;5.60;2.30;;;3.20;99.90;;;;;;5005861;28;20030;-64
2021/01/27 02:49:34;;;;;;;3.40;1.98;;;3.10;99.90;;;;;;5010015;28;20038;-64
2021/01/27 02:52:03;;;;;;;4.05;1.85;;;3.10;99.90;;;;;;5009085;28;20045;-64
2021/01/27 02:55:02;;;;;;;3.33;1.80;;;3.10;99.90;;;;;;5009951;28;20034;-64
2021/01/27 02:57:32;;;;;;;4.18;1.83;;;3.10;99.90;;;;;;5004397;28;20037;-64
2021/01/27 03:00:17;;;;;;;3.10;1.92;;;3.10;99.90;;;;;;5010009;28;20509;-64
2021/01/27 03:02:55;;;;;;;8.88;1.88;;;3.10;99.90;;;;;;5007118;28;20038;-64
2021/01/27 03:05:40;;;;;;;7.57;2.13;;;3.10;99.90;;;;;;5009484;28;20034;-64
2021/01/27 03:08:23;;;;;;;4.30;2.53;;;3.00;99.90;;;;;;5006393;28;20029;-64
2021/01/27 03:11:04;;;;;;;3.92;2.10;;;3.00;99.90;;;;;;5002018;28;20083;-64
2021/01/27 03:13:30;;;;;;;3.70;1.92;;;3.10;99.90;;;;;;5009918;28;20111;-64
2021/01/27 03:16:02;;;;;;;7.53;2.90;;;3.00;99.90;;;;;;5008433;28;20745;-64
2021/01/27 03:18:31;;;;;;;3.00;1.70;;;3.00;99.90;;;;;;5008013;28;20045;-65
2021/01/27 03:21:03;;;;;;;4.20;1.92;;;3.00;99.90;;;;;;5010397;28;20059;-64
2021/01/27 03:23:34;;;;;;;3.05;2.25;;;3.00;99.90;;;;;;5009748;28;20029;-64
2021/01/27 03:26:29;;;;;;;3.95;1.85;;;3.10;99.90;;;;;;5012653;28;20049;-64
2021/01/27 03:29:07;;;;;;;3.65;1.92;;;3.00;99.90;;;;;;5018323;28;20116;-65
2021/01/27 03:31:33;;;;;;;3.65;2.25;;;3.00;99.90;;;;;;5018801;28;20026;-65
2021/01/27 03:34:06;;;;;;;8.13;3.35;;;2.90;99.90;;;;;;5010126;28;20072;-63
2021/01/27 03:37:16;;;;;;;3.00;1.80;;;3.00;99.90;;;;;;5009028;28;20463;-65
2021/01/27 03:39:48;;;;;;;7.07;2.33;;;2.90;99.90;;;;;;5005812;28;20080;-64
2021/01/27 03:42:24;;;;;;;3.88;1.98;;;2.80;99.90;;;;;;5008219;28;20030;-64
2021/01/27 03:44:57;;;;;;;3.38;2.05;;;2.80;99.90;;;;;;5007332;28;20038;-64
2021/01/27 03:47:33;;;;;;;3.80;1.95;;;2.80;99.90;;;;;;5009761;28;20030;-65
2021/01/27 03:50:08;;;;;;;5.28;2.53;;;2.80;99.90;;;;;;5009098;28;20026;-64
2021/01/27 03:52:45;;;;;;;3.97;2.30;;;2.80;99.90;;;;;;5005705;28;20026;-64
2021/01/27 03:55:25;;;;;;;3.83;2.08;;;2.80;99.90;;;;;;5006257;28;20165;-64
2021/01/27 03:58:00;;;;;;;;;;;2.80;99.90;;;;;;5007816;28;20044;-65
2021/01/27 04:00:30;;;;;;;3.88;2.10;;;2.80;99.90;;;;;;5009333;28;19913;-64
2021/01/27 04:03:11;;;;;;;2.97;1.95;;;2.80;99.90;;;;;;5008965;28;20034;-64
2021/01/27 04:05:37;;;;;;;;;;;2.80;99.90;;;;;;5006026;28;20092;-64
2021/01/27 04:08:03;;;;;;;4.35;1.98;;;2.80;99.90;;;;;;5008645;28;19921;-64
2021/01/27 04:10:29;;;;;;;5.05;2.30;;;2.70;99.90;;;;;;5009090;28;20030;-64
2021/01/27 04:12:54;;;;;;;3.10;2.03;;;2.80;99.90;;;;;;5008787;28;20042;-64
2021/01/27 04:15:20;;;;;;;5.00;2.90;;;2.70;99.90;;;;;;5009128;28;20495;-64
2021/01/27 04:17:45;;;;;;;4.40;2.63;;;2.70;99.90;;;;;;5008971;28;20038;-64
2021/01/27 04:20:11;;;;;;;4.55;2.00;;;2.70;99.90;;;;;;5008592;28;20050;-64
2021/01/27 04:22:37;;;;;;;4.47;2.03;;;2.60;99.90;;;;;;5009261;28;20029;-64
2021/01/27 04:25:03;;;;;;;6.25;2.50;;;2.60;99.90;;;;;;5008297;28;20543;-64
2021/01/27 04:27:29;;;;;;;4.63;2.70;;;2.60;99.90;;;;;;5008981;28;20034;-65
2021/01/27 04:29:55;;;;;;;3.20;1.90;;;2.50;99.90;;;;;;5008679;28;20040;-64
2021/01/27 04:32:20;;;;;;;2.95;1.90;;;2.50;99.90;;;;;;5007940;28;20105;-64
2021/01/27 04:34:46;;;;;;;4.55;2.70;;;2.50;99.90;;;;;;5015617;28;20030;-64
2021/01/27 04:37:11;;;;;;;3.92;2.25;;;2.40;99.90;;;;;;5018434;28;20042;-64
2021/01/27 04:39:37;;;;;;;3.22;1.80;;;2.40;99.90;;;;;;5016405;28;20185;-64
2021/01/27 04:42:03;;;;;;;3.00;2.22;;;2.40;99.90;;;;;;5007053;28;20052;-64
2021/01/27 04:44:28;;;;;;;4.18;2.22;;;2.30;99.90;;;;;;5008924;28;20050;-64
2021/01/27 04:47:12;;;;;;;4.00;2.08;;;2.40;99.90;;;;;;5008273;28;20041;-64
2021/01/27 04:49:43;;;;;;;5.40;2.63;;;2.40;99.90;;;;;;5005712;28;20434;-64
2021/01/27 04:52:18;;;;;;;4.10;2.22;;;2.40;99.90;;;;;;5008700;28;20788;-64
2021/01/27 04:55:16;;;;;;;4.05;2.22;;;2.40;99.90;;;;;;5008568;28;20054;-64
2021/01/27 04:57:57;;;;;;;4.75;2.47;;;2.40;99.90;;;;;;5005923;28;20040;-64
2021/01/27 05:01:02;;;;;;;4.07;2.42;;;2.40;99.90;;;;;;5007229;28;20049;-64
2021/01/27 05:03:56;;;;;;;4.05;2.22;;;2.40;99.90;;;;;;5007169;28;20052;-64
2021/01/27 05:06:28;;;;;;;4.68;2.40;;;2.40;99.90;;;;;;5008518;28;20066;-64
2021/01/27 05:09:07;;;;;;;2.30;1.92;;;2.40;99.90;;;;;;5008358;28;20406;-64
2021/01/27 05:11:33;;;;;;;2.67;2.10;;;2.40;99.90;;;;;;5004845;28;20447;-64
2021/01/27 05:14:01;;;;;;;4.65;2.25;;;2.40;99.90;;;;;;5009010;28;20030;-65
2021/01/27 05:16:29;;;;;;;4.00;2.63;;;2.40;99.90;;;;;;5013880;28;20044;-64
2021/01/27 05:18:58;;;;;;;3.95;2.83;;;2.50;99.90;;;;;;5014230;28;20045;-64
2021/01/27 05:21:33;;;;;;;4.53;2.60;;;2.50;99.90;;;;;;5015358;28;20038;-64
2021/01/27 05:24:00;;;;;;;5.30;2.72;;;2.50;99.90;;;;;;5011899;28;20053;-64
2021/01/27 05:27:16;;;;;;;4.13;2.83;;;2.50;99.90;;;;;;5014894;28;20045;-64
2021/01/27 05:30:01;;;;;;;3.67;2.60;;;2.50;99.90;;;;;;4997359;28;20046;-64
2021/01/27 05:32:26;;;;;;;5.18;2.75;;;2.50;99.90;;;;;;5034438;28;20038;-64
2021/01/27 05:34:55;;;;;;;7.30;2.60;;;2.50;99.90;;;;;;5036144;28;20052;-65
2021/01/27 05:37:26;;;;;;;3.83;2.30;;;2.50;99.90;;;;;;5031533;28;20033;-65
2021/01/27 05:40:22;;;;;;;4.38;2.80;;;2.50;99.90;;;;;;5028459;28;20446;-64
2021/01/27 05:42:47;;;;;;;4.82;2.83;;;2.60;99.90;;;;;;5037965;28;20041;-64
2021/01/27 05:45:44;;;;;;;4.72;2.67;;;2.60;99.90;;;;;;5039650;28;20033;-64
2021/01/27 05:48:26;;;;;;;4.05;2.80;;;2.60;99.90;;;;;;5027753;28;20041;-64
2021/01/27 05:50:54;;;;;;;3.25;2.60;;;2.60;99.90;;;;;;5029953;28;20040;-64
2021/01/27 05:53:24;;;;;;;3.38;2.60;;;2.60;99.90;;;;;;5029704;28;20394;-64
2021/01/27 05:55:57;;;;;;;4.72;3.38;;;2.70;99.90;;;;;;5032551;28;20084;-64
2021/01/27 05:58:23;;;;;;;4.22;2.75;;;2.60;99.90;;;;;;5033088;28;20037;-64
2021/01/27 06:00:49;;;;;;;3.30;2.63;;;2.60;99.90;;;;;;5032696;28;20522;-64
2021/01/27 06:03:23;;;;;;;4.35;3.05;;;2.60;99.90;;;;;;5032942;28;20034;-64
2021/01/27 06:05:48;;;;;;;4.80;2.78;;;2.60;99.90;;;;;;5033561;28;20041;-67
2021/01/27 06:08:19;;;;;;;4.50;2.88;;;2.60;99.90;;;;;;5033683;28;20398;-64
2021/01/27 06:10:45;;;;;;;7.22;2.90;;;2.60;99.90;;;;;;5029606;28;20068;-64
2021/01/27 06:13:16;;;;;;;4.00;2.90;;;2.60;99.90;;;;;;5030447;28;20120;-64
2021/01/27 06:15:42;;;;;;;4.40;3.20;;;2.70;99.90;;;;;;5028747;28;20033;-64
2021/01/27 06:18:26;;;;;;;4.43;2.95;;;2.60;99.90;;;;;;5038063;28;20037;-64
2021/01/27 06:21:19;;;;;;;3.67;2.72;;;2.60;99.90;;;;;;5032295;28;20482;-64
2021/01/27 06:23:53;;;;;;;4.38;2.83;;;2.60;99.90;;;;;;5029007;28;20029;-65
2021/01/27 06:26:31;;;;;;;4.32;2.88;;;2.70;99.90;;;;;;5031460;28;20501;-64
2021/01/27 06:29:20;;;;;;;3.97;2.72;;;2.60;99.90;;;;;;5024128;28;20053;-64
2021/01/27 06:32:13;;;;;;;4.75;2.70;;;2.60;99.90;;;;;;5032360;28;20800;-64
2021/01/27 06:34:46;;;;;;;7.32;3.20;;;2.60;99.90;;;;;;5029875;28;20037;-64
2021/01/27 06:37:36;;;;;;;4.43;2.85;;;2.60;99.90;;;;;;5029229;28;20035;-64
2021/01/27 06:40:29;;;;;;;3.70;2.75;;;2.60;99.90;;;;;;5032928;28;20043;-64
2021/01/27 06:43:16;;;;;;;3.67;2.75;;;2.60;99.90;;;;;;5028120;28;20155;-64
2021/01/27 06:46:10;;;;;;;4.82;2.70;;;2.70;99.90;;;;;;5030269;28;20060;-64
2021/01/27 06:48:35;;;;;;;5.00;3.10;;;2.70;99.90;;;;;;5037482;28;20034;-67
2021/01/27 06:51:37;;;;;;;4.40;2.95;;;2.60;99.90;;;;;;5040816;28;20494;-65
2021/01/27 06:54:24;;;;;;;4.75;2.78;;;2.70;99.90;;;;;;5034391;28;20497;-64
2021/01/27 06:57:00;;;;;;;6.30;3.08;;;2.60;99.90;;;;;;5031456;28;20067;-64
2021/01/27 06:59:34;;;;;;;4.07;2.78;;;2.60;99.90;;;;;;5026533;28;20040;-64
2021/01/27 07:02:25;;;;;;;4.25;2.95;;;2.60;99.90;;;;;;5033476;28;20044;-64
2021/01/27 07:04:57;;;;;;;;;;;2.70;99.90;;;;;;5030176;28;20036;-64
2021/01/27 07:07:37;;;;;;;4.32;2.85;;;2.70;99.90;;;;;;5027379;28;19973;-64
2021/01/27 07:10:12;;;;;;;;;;;2.70;99.90;;;;;;5033420;28;20099;-64
2021/01/27 07:12:49;;;;;;;3.67;2.65;;;2.70;99.90;;;;;;5031356;28;19917;-65
2021/01/27 07:15:39;;;;;;;3.97;3.00;;;2.70;99.90;;;;;;5030869;28;20092;-64
2021/01/27 07:18:22;;;;;;;5.95;4.25;;;2.70;99.90;;;;;;5030509;28;20056;-67
2021/01/27 07:21:03;;;;;;;6.55;3.58;;;2.70;99.90;;;;;;5031859;28;20498;-66
2021/01/27 07:23:47;;;;;;;8.30;3.78;;;2.70;99.90;;;;;;5026501;28;20024;-66
2021/01/27 07:26:23;;;;;;;8.13;4.53;;;2.70;99.90;;;;;;5030069;28;20028;-67
2021/01/27 07:29:30;;;;;;;9.73;4.57;;;2.80;99.90;;;;;;5029677;28;20037;-66
2021/01/27 07:32:09;;;;;;;7.10;4.53;;;2.70;99.90;;;;;;5025530;28;20130;-66
2021/01/27 07:34:37;;;;;;;10.45;4.90;;;2.70;99.90;;;;;;5029769;28;20103;-67
2021/01/27 07:37:06;;;;;;;7.28;4.40;;;2.70;99.90;;;;;;5029061;28;20076;-66
2021/01/27 07:39:47;;;;;;;8.18;4.65;;;2.70;99.90;;;;;;5026219;28;20030;-66
2021/01/27 07:42:36;;;;;;;12.90;5.60;;;2.80;99.90;;;;;;5030428;28;20029;-66
2021/01/27 07:45:07;;;;;;;12.90;5.55;;;2.80;99.90;;;;;;5027161;28;20464;-67
2021/01/27 07:47:36;;;;;;;12.60;5.43;;;2.80;99.90;;;;;;5034595;28;20079;-66
2021/01/27 07:50:01;;;;;;;12.57;6.10;;;2.80;99.90;;;;;;5031520;28;20393;-66
2021/01/27 07:52:41;;;;;;;16.13;6.05;;;2.90;99.90;;;;;;5029013;28;20029;-66
2021/01/27 07:55:16;;;;;;;16.60;5.63;;;2.90;99.90;;;;;;5031349;28;20041;-66
2021/01/27 07:57:56;;;;;;;8.63;5.40;;;2.90;99.90;;;;;;5035549;28;20053;-66
2021/01/27 08:00:29;;;;;;;12.90;5.45;;;2.90;99.90;;;;;;5029968;28;20053;-66
2021/01/27 08:03:04;;;;;;;9.02;5.05;;;2.90;99.90;;;;;;5027559;28;20030;-66
2021/01/27 08:05:37;;;;;;;7.57;5.32;;;2.90;99.90;;;;;;5034136;28;20134;-67
2021/01/27 08:08:06;;;;;;;8.02;4.35;;;3.00;99.90;;;;;;5034767;28;20107;-66
2021/01/27 08:10:34;;;;;;;11.05;6.10;;;2.90;99.90;;;;;;5029702;28;20224;-67
2021/01/27 08:13:02;;;;;;;14.05;5.50;;;3.00;99.90;;;;;;5028740;28;20036;-66
2021/01/27 08:15:27;;;;;;;9.68;4.80;;;3.00;99.90;;;;;;5027633;28;20033;-66
2021/01/27 08:17:58;;;;;;;8.70;5.05;;;3.00;99.90;;;;;;5029784;28;20041;-67
2021/01/27 08:20:24;;;;;;;8.35;5.00;;;3.10;99.90;;;;;;5029270;28;20360;-66
2021/01/27 08:22:54;;;;;;;9.20;4.70;;;3.10;99.90;;;;;;5028683;28;20521;-66
2021/01/27 08:25:57;;;;;;;8.50;5.07;;;3.10;99.90;;;;;;5025811;28;20060;-67
2021/01/27 08:28:37;;;;;;;8.35;5.13;;;3.10;99.90;;;;;;5024922;28;20172;-66
2021/01/27 08:31:12;;;;;;;9.45;5.30;;;3.10;99.90;;;;;;5029585;28;20029;-66
2021/01/27 08:33:47;;;;;;;13.80;5.28;;;3.10;99.90;;;;;;5029364;28;20061;-66
2021/01/27 08:36:29;;;;;;;10.25;5.80;;;3.10;99.90;;;;;;5028696;28;20029;-66
2021/01/27 08:38:57;;;;;;;11.82;6.13;;;3.20;99.90;;;;;;5025752;28;20095;-67
2021/01/27 08:41:42;;;;;;;10.10;6.03;;;3.20;99.90;;;;;;5029670;28;20533;-66
2021/01/27 08:44:36;;;;;;;10.18;5.60;;;3.20;99.90;;;;;;5026646;28;20647;-67
2021/01/27 08:47:23;;;;;;;11.60;5.95;;;3.20;99.90;;;;;;5026083;28;20045;-67
2021/01/27 08:49:59;;;;;;;10.55;6.18;;;3.20;99.90;;;;;;5028435;28;20124;-67
2021/01/27 08:52:24;;;;;;;12.38;6.47;;;3.20;99.90;;;;;;5030403;28;20130;-67
2021/01/27 08:54:51;;;;;;;11.43;5.88;;;3.30;99.90;;;;;;5032805;28;20123;-68
2021/01/27 08:57:35;;;;;;;12.73;6.45;;;3.30;99.90;;;;;;5029192;28;20112;-66
2021/01/27 09:00:39;;;;;;;13.00;6.40;;;3.30;99.90;;;;;;5031837;28;20504;-66
2021/01/27 09:03:05;;;;;;;14.32;7.10;;;3.30;99.90;;;;;;5028613;28;20401;-66
2021/01/27 09:05:30;;;;;;;13.60;7.57;;;3.30;99.90;;;;;;5032390;28;20029;-66
2021/01/27 09:07:57;;;;;;;15.10;7.82;;;3.30;99.90;;;;;;5032559;28;20041;-66
2021/01/27 09:10:39;;;;;;;12.32;6.45;;;3.40;99.90;;;;;;5032760;28;20033;-66
2021/01/27 09:13:28;;;;;;;13.07;7.00;;;3.40;99.90;;;;;;5032298;28;20120;-66
2021/01/27 09:15:59;;;;;;;11.80;7.03;;;3.40;99.90;;;;;;5033339;28;20038;-67
2021/01/27 09:18:25;;;;;;;11.45;6.72;;;3.40;99.90;;;;;;5034924;28;20041;-66
2021/01/27 09:20:51;;;;;;;14.52;6.82;;;3.50;99.90;;;;;;5035475;28;20038;-67
2021/01/27 09:23:19;;;;;;;13.25;7.55;;;3.50;99.90;;;;;;5033881;28;20056;-66
2021/01/27 09:25:46;;;;;;;13.23;7.38;;;3.60;99.90;;;;;;5028102;28;20512;-66
2021/01/27 09:28:18;;;;;;;13.48;7.32;;;3.60;99.90;;;;;;5031228;28;20043;-66
2021/01/27 09:30:44;;;;;;;14.90;6.82;;;3.60;99.90;;;;;;5028865;28;20421;-66
2021/01/27 09:33:16;;;;;;;14.30;6.57;;;3.70;99.90;;;;;;5030245;28;20505;-66
2021/01/27 09:35:44;;;;;;;15.55;7.05;;;3.70;99.90;;;;;;5029152;28;20037;-66
2021/01/27 09:38:19;;;;;;;12.55;6.75;;;3.70;99.90;;;;;;5031269;28;20038;-67
2021/01/27 09:40:59;;;;;;;13.52;7.05;;;3.70;99.90;;;;;;5028996;28;20053;-66
2021/01/27 09:43:25;;;;;;;12.68;6.47;;;3.70;99.90;;;;;;5028020;28;20033;-67
2021/01/27 09:45:52;;;;;;;12.40;6.75;;;3.80;99.90;;;;;;5032582;28;20733;-67
2021/01/27 09:48:20;;;;;;;11.63;6.28;;;3.80;99.90;;;;;;5031370;28;20160;-67
2021/01/27 09:50:55;;;;;;;11.95;6.68;;;3.80;99.90;;;;;;5031750;28;20038;-66
2021/01/27 09:53:27;;;;;;;14.38;7.32;;;3.90;99.90;;;;;;5027010;28;20053;-66
2021/01/27 09:55:54;;;;;;;12.65;6.53;;;4.00;99.90;;;;;;5031940;28;20103;-66
2021/01/27 09:58:20;;;;;;;13.48;7.07;;;4.00;99.90;;;;;;5033602;28;20120;-66
2021/01/27 10:00:47;;;;;;;14.35;7.63;;;3.90;99.90;;;;;;5030042;28;20045;-66
2021/01/27 10:03:18;;;;;;;17.48;7.97;;;4.00;99.90;;;;;;5030438;28;20120;-67
2021/01/27 10:05:44;;;;;;;13.98;7.45;;;4.00;99.90;;;;;;5029997;28;20021;-66
2021/01/27 10:08:34;;;;;;;14.60;7.18;;;4.00;99.90;;;;;;5030556;28;20383;-67
2021/01/27 10:11:01;;;;;;;13.68;7.07;;;4.00;99.90;;;;;;5028308;28;20029;-66
2021/01/27 10:13:32;;;;;;;13.75;6.75;;;4.10;99.90;;;;;;5030562;28;20556;-66
2021/01/27 10:16:07;;;;;;;16.83;7.30;;;4.00;99.90;;;;;;5031446;28;20068;-67
2021/01/27 10:18:34;;;;;;;15.93;7.78;;;4.10;99.90;;;;;;5030661;28;20124;-66
2021/01/27 10:21:03;;;;;;;18.02;8.15;;;4.10;99.90;;;;;;5030941;28;20045;-67
2021/01/27 10:23:37;;;;;;;14.85;7.90;;;4.00;99.90;;;;;;5030538;28;20447;-66
2021/01/27 10:26:35;;;;;;;16.40;8.20;;;4.10;99.90;;;;;;5031646;28;20040;-66
2021/01/27 10:29:16;;;;;;;15.18;7.72;;;4.20;99.90;;;;;;5029273;28;20033;-66
2021/01/27 10:32:04;;;;;;;;;;;4.20;99.90;;;;;;5028108;28;20103;-67
2021/01/27 10:34:56;;;;;;;17.83;9.02;;;4.20;99.90;;;;;;5029006;28;20628;-66
2021/01/27 10:37:33;;;;;;;18.52;8.50;;;4.20;99.90;;;;;;5027471;28;20041;-66
2021/01/27 10:40:24;;;;;;;16.83;8.48;;;4.20;99.90;;;;;;5037142;28;20038;-68
2021/01/27 10:42:55;;;;;;;21.25;8.50;;;4.30;99.90;;;;;;5030455;28;20379;-67
2021/01/27 10:45:30;;;;;;;14.85;8.02;;;4.30;99.90;;;;;;5033699;28;20029;-67
2021/01/27 10:48:10;;;;;;;17.42;8.43;;;4.30;99.90;;;;;;5028660;28;20253;-66
2021/01/27 10:50:38;;;;;;;;;;;4.40;99.90;;;;;;5029537;28;20087;-66
2021/01/27 10:53:05;;;;;;;20.10;8.73;;;4.50;99.90;;;;;;5030119;28;20390;-66
2021/01/27 10:55:36;;;;;;;17.13;8.10;;;4.60;99.90;;;;;;5031619;28;20034;-67
2021/01/27 10:58:10;;;;;;;21.90;10.07;;;4.70;99.90;;;;;;5032385;28;20124;-66
2021/01/27 11:00:37;;;;;;;20.55;9.60;;;4.80;99.90;;;;;;5033341;28;20123;-67
2021/01/27 11:03:05;;;;;;;18.25;9.20;;;4.80;99.90;;;;;;5033833;28;20110;-66
2021/01/27 11:05:31;;;;;;;16.35;8.60;;;4.90;99.90;;;;;;5035273;28;20041;-66
2021/01/27 11:07:57;;;;;;;18.70;8.90;;;4.90;99.90;;;;;;5035315;28;20037;-66
2021/01/27 11:10:23;;;;;;;20.65;8.02;;;5.00;99.90;;;;;;5032588;28;20037;-67
2021/01/27 11:12:49;;;;;;;16.10;8.52;;;5.00;99.90;;;;;;5033106;28;20076;-66
2021/01/27 11:15:15;;;;;;;18.83;9.07;;;5.10;99.90;;;;;;5033300;28;20099;-66
2021/01/27 11:17:40;;;;;;;16.17;9.25;;;5.10;99.90;;;;;;5034670;28;20029;-66
2021/01/27 11:20:07;;;;;;;18.83;8.10;;;5.10;99.90;;;;;;5031845;28;20042;-66
2021/01/27 11:22:33;;;;;;;20.58;8.75;;;5.10;99.90;;;;;;5032381;28;20036;-66
2021/01/27 11:24:58;;;;;;;19.58;8.77;;;5.30;99.90;;;;;;5032762;28;20033;-67
2021/01/27 11:27:24;;;;;;;17.27;8.30;;;5.30;99.90;;;;;;5032987;28;20029;-67
2021/01/27 11:29:50;;;;;;;14.60;7.68;;;5.40;99.90;;;;;;5031245;28;20049;-67
2021/01/27 11:32:15;;;;;;;17.63;8.07;;;5.50;99.90;;;;;;5031755;28;20030;-67
2021/01/27 11:34:41;;;;;;;19.17;8.70;;;5.50;99.90;;;;;;5031814;28;20044;-67
2021/01/27 11:37:08;;;;;;;16.20;8.52;;;5.50;99.90;;;;;;5032437;28;20032;-67
2021/01/27 11:39:34;;;;;;;17.15;8.40;;;5.60;99.90;;;;;;5033019;28;20773;-67
2021/01/27 11:42:00;;;;;;;18.70;8.75;;;5.70;99.90;;;;;;5033497;28;20037;-67
2021/01/27 11:44:25;;;;;;;18.23;8.50;;;5.70;99.90;;;;;;5032296;28;20021;-67
2021/01/27 11:46:51;;;;;;;13.55;6.97;;;5.90;99.90;;;;;;5032081;28;20041;-66
2021/01/27 11:49:17;;;;;;;14.55;6.95;;;5.90;99.90;;;;;;5027495;28;20097;-67
2021/01/27 11:51:43;;;;;;;20.42;8.93;;;5.90;99.90;;;;;;5027495;28;20109;-67
2021/01/27 11:54:09;;;;;;;21.88;8.38;;;5.90;99.90;;;;;;5030852;28;20040;-67
2021/01/27 11:56:34;;;;;;;29.58;8.93;;;6.00;99.90;;;;;;5031585;28;20025;-67
2021/01/27 11:59:00;;;;;;;26.45;7.80;;;6.00;99.90;;;;;;5035443;28;20116;-67
2021/01/27 12:01:27;;;;;;;18.70;8.73;;;6.00;99.90;;;;;;5030764;28;20033;-67
2021/01/27 12:03:54;;;;;;;15.07;7.28;;;6.00;99.90;;;;;;5029415;28;20170;-67
2021/01/27 12:06:20;;;;;;;14.23;7.13;;;5.90;99.90;;;;;;5031165;28;20053;-66
2021/01/27 12:08:45;;;;;;;14.93;6.78;;;5.90;99.90;;;;;;5032858;28;20663;-67
2021/01/27 12:11:11;;;;;;;16.45;7.90;;;5.90;99.90;;;;;;5030586;28;20038;-67
2021/01/27 12:13:36;;;;;;;18.95;8.10;;;5.90;99.90;;;;;;5029221;28;20052;-67
2021/01/27 12:16:02;;;;;;;17.55;7.88;;;5.90;99.90;;;;;;5026843;28;20152;-68
2021/01/27 12:18:27;;;;;;;18.00;8.15;;;6.00;99.90;;;;;;5028093;28;20398;-66
2021/01/27 12:20:53;;;;;;;18.15;8.80;;;6.00;99.90;;;;;;5031590;28;20098;-66
2021/01/27 12:23:20;;;;;;;16.88;7.55;;;6.00;99.90;;;;;;5030297;28;20034;-67
2021/01/27 12:25:46;;;;;;;21.65;9.32;;;6.10;99.90;;;;;;5029464;28;20045;-66
2021/01/27 12:28:12;;;;;;;22.90;9.32;;;6.10;99.90;;;;;;5030197;28;20044;-66
2021/01/27 12:30:39;;;;;;;19.88;8.95;;;6.10;99.90;;;;;;5029826;28;20029;-66
2021/01/27 12:33:05;;;;;;;27.40;8.85;;;6.10;99.90;;;;;;5028482;28;20036;-66
2021/01/27 12:35:31;;;;;;;21.35;8.65;;;6.10;99.90;;;;;;5030187;28;20037;-66
2021/01/27 12:37:58;;;;;;;14.95;7.47;;;6.10;99.90;;;;;;5027936;28;20164;-66
2021/01/27 12:40:23;;;;;;;18.90;8.35;;;6.10;99.90;;;;;;5029947;28;20029;-67
2021/01/27 12:42:50;;;;;;;18.55;8.25;;;6.10;99.90;;;;;;5030821;28;20055;-67
2021/01/27 12:45:18;;;;;;;19.15;8.35;;;6.10;99.90;;;;;;5029243;28;20040;-67
2021/01/27 12:47:43;;;;;;;23.83;8.75;;;6.10;99.90;;;;;;5027042;28;20053;-67
2021/01/27 12:50:10;;;;;;;17.13;7.95;;;6.10;99.90;;;;;;5029513;28;20487;-66
2021/01/27 12:52:36;;;;;;;18.75;8.60;;;6.10;99.90;;;;;;5031544;28;20544;-69
2021/01/27 12:55:03;;;;;;;20.80;8.18;;;6.10;99.90;;;;;;5025848;28;20116;-67
2021/01/27 12:57:28;;;;;;;15.15;8.02;;;6.10;99.90;;;;;;5029395;28;20545;-66
2021/01/27 12:59:54;;;;;;;23.77;9.13;;;6.10;99.90;;;;;;5029146;28;20025;-67
2021/01/27 13:02:19;;;;;;;19.33;8.75;;;6.20;99.90;;;;;;5029683;28;20803;-67
2021/01/27 13:04:45;;;;;;;20.85;8.60;;;6.20;99.90;;;;;;5031291;28;20467;-67
2021/01/27 13:07:10;;;;;;;22.70;9.38;;;6.20;99.90;;;;;;5029717;28;20034;-66
2021/01/27 13:09:36;;;;;;;18.75;7.97;;;6.20;99.90;;;;;;5029568;28;20033;-67
2021/01/27 13:12:01;;;;;;;21.65;8.18;;;6.30;99.90;;;;;;5029288;28;20028;-67
2021/01/27 13:14:27;;;;;;;23.25;8.98;;;6.40;99.90;;;;;;5030245;28;20052;-67
2021/01/27 13:16:52;;;;;;;23.08;8.90;;;6.50;99.90;;;;;;5030368;28;20068;-66
2021/01/27 13:19:18;;;;;;;21.92;8.93;;;6.50;99.90;;;;;;5028624;28;20037;-65
2021/01/27 13:21:44;;;;;;;18.45;8.05;;;6.60;99.90;;;;;;5027667;28;20037;-66
2021/01/27 13:24:10;;;;;;;18.83;7.95;;;6.70;99.90;;;;;;5028834;28;20597;-66